Solrod Strand, Denmark
Current Conditions -  °F | °C
As of 9:20 AM on Monday 22 Dec 2014 (Local Time) from EKRK Reporting Station
Drizzle Drizzle  
Wind Chill: 50°   Ceiling: 1000
Heat Index: 50°   Visibility: 6mi
Dew Point: 48°   Wind: 16mph
Humidity: 94%   Direction: 250°WSW
Pressure: 29.47"   Gusts: NA
Location:  55.53°N, 12.22°E
Report Text: EKRK 220820Z AUTO 25014KT 9999NDV DZ FEW007/// BKN010///OVC018/// 10/09 Q0998
Loading
Personal Weather Stations






























Interactive Weather Map New forecast layout! Learn more

10-Day Weather Forecast

Advertisements
Track Severe Weather on mobile